createdAt,value
2018-06-12T00:04:51.752Z,20.3
2018-06-12T00:14:50.967Z,20.3
2018-06-12T00:24:50.194Z,20
2018-06-12T00:34:49.437Z,20
2018-06-12T00:44:48.953Z,20
2018-06-12T00:54:47.892Z,19.9
2018-06-12T01:04:47.425Z,19.7
2018-06-12T01:14:46.361Z,19.7
2018-06-12T01:24:45.604Z,19.7
2018-06-12T01:34:44.819Z,19.7
2018-06-12T01:44:44.103Z,19.7
2018-06-12T01:54:43.289Z,19.7
2018-06-12T02:04:42.589Z,19.8
2018-06-12T02:14:41.749Z,19.8
2018-06-12T02:24:40.982Z,19.7
2018-06-12T02:34:40.210Z,19.6
2018-06-12T02:44:39.561Z,19.6
2018-06-12T02:54:38.987Z,20
2018-06-12T03:04:37.909Z,20.3
2018-06-12T03:14:37.150Z,20.5
2018-06-12T03:24:36.385Z,20.6
2018-06-12T03:34:35.622Z,20.8
2018-06-12T03:44:34.849Z,21
2018-06-12T03:54:34.071Z,21.4
2018-06-12T04:04:33.302Z,21.9
2018-06-12T04:14:32.557Z,22.3
2018-06-12T04:24:31.794Z,22.7
2018-06-12T04:34:31.006Z,23
2018-06-12T04:44:30.247Z,23.3
2018-06-12T04:54:29.521Z,23.6
2018-06-12T05:04:28.716Z,23.9
2018-06-12T05:14:28.260Z,24.2
2018-06-12T05:24:27.201Z,24.4
2018-06-12T05:34:26.424Z,24.6
2018-06-12T05:44:25.643Z,24.8
2018-06-12T05:54:24.871Z,25
2018-06-12T06:04:24.107Z,25.3
2018-06-12T06:14:23.341Z,25.4
2018-06-12T06:24:22.580Z,25.6
2018-06-12T06:34:21.801Z,25.8
2018-06-12T15:13:47.664Z,27.4
2018-06-12T15:23:46.896Z,27.4
2018-06-12T15:33:46.137Z,27.4
2018-06-12T15:43:45.373Z,27.4
2018-06-12T15:53:44.605Z,27.4
2018-06-12T16:03:43.841Z,27.4
2018-06-12T16:13:43.087Z,27.4
2018-06-12T16:23:42.600Z,27.4
2018-06-12T16:33:41.560Z,27.3
2018-06-12T16:43:40.789Z,27.4
2018-06-12T16:53:40.032Z,27.4
2018-06-12T17:03:39.265Z,27.4
2018-06-12T17:13:38.512Z,27.4
2018-06-12T17:23:37.738Z,27.4
2018-06-12T17:33:36.973Z,27.4
2018-06-12T17:43:36.295Z,27.4
2018-06-12T17:53:35.731Z,27.4
2018-06-12T18:03:34.684Z,27.3
2018-06-12T18:13:34.202Z,27.2
2018-06-12T18:23:33.160Z,27.1
2018-06-12T18:33:32.679Z,26.8
2018-06-12T18:43:31.915Z,26.6
2018-06-12T18:53:30.871Z,26.4
2018-06-12T19:03:30.121Z,26.2
2018-06-12T19:13:29.363Z,26
2018-06-12T19:23:28.868Z,25.8
2018-06-12T19:33:27.826Z,25.6
2018-06-12T19:43:27.074Z,25.4
2018-06-12T19:53:26.585Z,25.1
2018-06-12T20:03:25.535Z,24.9
2018-06-12T20:13:24.774Z,24.8
2018-06-12T20:23:24.009Z,24.6
2018-06-12T20:33:23.254Z,24.6
2018-06-12T20:43:22.483Z,24.4
2018-06-12T20:53:21.720Z,24.3
2018-06-12T21:03:20.962Z,24.3
2018-06-12T21:13:20.192Z,24.2
2018-06-12T21:23:19.442Z,24.1
2018-06-12T21:33:18.666Z,23.9
2018-06-12T21:43:17.903Z,23.8
2018-06-12T21:53:17.150Z,23.8
2018-06-12T22:03:16.377Z,23.7
2018-06-12T22:13:15.893Z,23.6
2018-06-12T22:23:14.848Z,23.4
2018-06-12T22:33:14.091Z,23.3
2018-06-12T22:43:13.321Z,23.2
2018-06-12T22:53:12.559Z,23.1
2018-06-12T23:03:11.802Z,22.9
2018-06-12T23:13:11.031Z,22.8
2018-06-12T23:23:10.276Z,22.6
2018-06-12T23:33:09.503Z,22.5
2018-06-12T23:43:08.792Z,22.4
2018-06-12T23:53:08.070Z,22.4
